sensor_id;sensor_type;location;lat;lon;timestamp;temperature;humidity
75010;DHT22;63564;46.840;18.336;2023-04-29T00:00:09;12.06;73.95
75010;DHT22;63564;46.840;18.336;2023-04-29T00:03:10;12.11;74.01
75010;DHT22;63564;46.840;18.336;2023-04-29T00:06:10;12.08;74.06
75010;DHT22;63564;46.840;18.336;2023-04-29T00:09:11;11.98;73.84
75010;DHT22;63564;46.840;18.336;2023-04-29T00:12:11;11.95;74.11
75010;DHT22;63564;46.840;18.336;2023-04-29T00:15:11;11.77;74.38
75010;DHT22;63564;46.840;18.336;2023-04-29T00:18:12;11.79;74.42
75010;DHT22;63564;46.840;18.336;2023-04-29T00:21:13;11.77;74.56
75010;DHT22;63564;46.840;18.336;2023-04-29T00:24:13;11.75;74.92
75010;DHT22;63564;46.840;18.336;2023-04-29T00:27:13;11.78;75.05
75010;DHT22;63564;46.840;18.336;2023-04-29T00:30:16;11.79;74.11
75010;DHT22;63564;46.840;18.336;2023-04-29T00:33:16;11.74;73.39
75010;DHT22;63564;46.840;18.336;2023-04-29T00:36:16;11.70;72.82
75010;DHT22;63564;46.840;18.336;2023-04-29T00:39:17;11.73;72.03
75010;DHT22;63564;46.840;18.336;2023-04-29T00:42:17;11.75;71.81
75010;DHT22;63564;46.840;18.336;2023-04-29T00:45:17;11.71;71.75
75010;DHT22;63564;46.840;18.336;2023-04-29T00:48:18;11.75;71.58
75010;DHT22;63564;46.840;18.336;2023-04-29T00:51:18;11.77;71.41
75010;DHT22;63564;46.840;18.336;2023-04-29T00:54:19;11.74;71.43
75010;DHT22;63564;46.840;18.336;2023-04-29T00:57:21;11.71;71.46
75010;DHT22;63564;46.840;18.336;2023-04-29T01:00:21;11.67;71.75
75010;DHT22;63564;46.840;18.336;2023-04-29T01:03:24;11.67;71.42
75010;DHT22;63564;46.840;18.336;2023-04-29T01:10:09;11.70;71.22
75010;DHT22;63564;46.840;18.336;2023-04-29T01:16:44;11.67;71.59
75010;DHT22;63564;46.840;18.336;2023-04-29T01:19:48;11.67;71.17
75010;DHT22;63564;46.840;18.336;2023-04-29T01:22:49;11.64;71.25
75010;DHT22;63564;46.840;18.336;2023-04-29T01:25:49;11.63;71.41
75010;DHT22;63564;46.840;18.336;2023-04-29T01:29:23;11.55;71.51
75010;DHT22;63564;46.840;18.336;2023-04-29T01:36:34;11.48;71.47
75010;DHT22;63564;46.840;18.336;2023-04-29T01:39:56;11.40;72.15
75010;DHT22;63564;46.840;18.336;2023-04-29T01:43:01;11.43;72.45
75010;DHT22;63564;46.840;18.336;2023-04-29T01:46:05;11.46;71.89
75010;DHT22;63564;46.840;18.336;2023-04-29T01:49:06;11.44;71.64
75010;DHT22;63564;46.840;18.336;2023-04-29T01:52:06;11.40;72.09
75010;DHT22;63564;46.840;18.336;2023-04-29T01:55:07;11.43;71.87
75010;DHT22;63564;46.840;18.336;2023-04-29T01:58:09;11.43;71.71
75010;DHT22;63564;46.840;18.336;2023-04-29T02:01:10;11.37;72.26
75010;DHT22;63564;46.840;18.336;2023-04-29T02:04:11;11.43;71.74
75010;DHT22;63564;46.840;18.336;2023-04-29T02:07:11;11.40;71.19
75010;DHT22;63564;46.840;18.336;2023-04-29T02:10:11;11.34;72.02
75010;DHT22;63564;46.840;18.336;2023-04-29T02:13:12;11.36;71.57
75010;DHT22;63564;46.840;18.336;2023-04-29T02:16:13;11.44;71.23
75010;DHT22;63564;46.840;18.336;2023-04-29T02:19:14;11.38;71.26
75010;DHT22;63564;46.840;18.336;2023-04-29T02:22:15;11.38;71.17
75010;DHT22;63564;46.840;18.336;2023-04-29T02:25:16;11.46;70.77
75010;DHT22;63564;46.840;18.336;2023-04-29T02:28:16;11.41;70.81
75010;DHT22;63564;46.840;18.336;2023-04-29T02:31:17;11.46;70.64
75010;DHT22;63564;46.840;18.336;2023-04-29T02:34:17;11.43;71.07
75010;DHT22;63564;46.840;18.336;2023-04-29T02:37:18;11.43;70.42
75010;DHT22;63564;46.840;18.336;2023-04-29T02:40:18;11.36;70.99
75010;DHT22;63564;46.840;18.336;2023-04-29T02:43:18;11.27;73.31
75010;DHT22;63564;46.840;18.336;2023-04-29T02:46:19;11.08;74.28
75010;DHT22;63564;46.840;18.336;2023-04-29T02:49:19;11.13;74.18
75010;DHT22;63564;46.840;18.336;2023-04-29T02:52:20;11.03;74.53
75010;DHT22;63564;46.840;18.336;2023-04-29T02:55:20;11.08;73.55
75010;DHT22;63564;46.840;18.336;2023-04-29T02:58:21;11.12;73.47
75010;DHT22;63564;46.840;18.336;2023-04-29T03:01:22;11.08;73.94
75010;DHT22;63564;46.840;18.336;2023-04-29T03:04:23;10.98;76.21
75010;DHT22;63564;46.840;18.336;2023-04-29T03:07:24;11.05;74.78
75010;DHT22;63564;46.840;18.336;2023-04-29T03:10:24;11.15;74.26
75010;DHT22;63564;46.840;18.336;2023-04-29T03:13:25;11.24;73.48
75010;DHT22;63564;46.840;18.336;2023-04-29T03:16:25;11.23;73.07
75010;DHT22;63564;46.840;18.336;2023-04-29T03:19:28;11.31;72.13
75010;DHT22;63564;46.840;18.336;2023-04-29T03:22:28;11.26;72.17
75010;DHT22;63564;46.840;18.336;2023-04-29T03:25:29;11.12;72.30
75010;DHT22;63564;46.840;18.336;2023-04-29T03:28:29;11.15;71.93
75010;DHT22;63564;46.840;18.336;2023-04-29T03:31:29;11.19;72.12
75010;DHT22;63564;46.840;18.336;2023-04-29T03:34:30;11.06;72.51
75010;DHT22;63564;46.840;18.336;2023-04-29T03:37:30;10.93;73.09
75010;DHT22;63564;46.840;18.336;2023-04-29T03:40:30;10.92;73.67
75010;DHT22;63564;46.840;18.336;2023-04-29T03:43:31;10.96;73.69
75010;DHT22;63564;46.840;18.336;2023-04-29T03:46:31;11.05;73.49
75010;DHT22;63564;46.840;18.336;2023-04-29T03:49:32;11.00;73.49
75010;DHT22;63564;46.840;18.336;2023-04-29T03:52:32;10.83;74.09
75010;DHT22;63564;46.840;18.336;2023-04-29T03:55:35;10.91;73.92
75010;DHT22;63564;46.840;18.336;2023-04-29T03:58:35;11.06;73.31
75010;DHT22;63564;46.840;18.336;2023-04-29T04:01:36;11.05;73.20
75010;DHT22;63564;46.840;18.336;2023-04-29T04:04:37;11.02;73.90
75010;DHT22;63564;46.840;18.336;2023-04-29T04:07:37;10.86;74.45
75010;DHT22;63564;46.840;18.336;2023-04-29T04:10:37;10.99;74.24
75010;DHT22;63564;46.840;18.336;2023-04-29T04:13:38;11.08;73.74
75010;DHT22;63564;46.840;18.336;2023-04-29T04:16:39;11.15;73.28
75010;DHT22;63564;46.840;18.336;2023-04-29T04:19:39;11.13;73.22
75010;DHT22;63564;46.840;18.336;2023-04-29T04:22:40;11.09;72.86
75010;DHT22;63564;46.840;18.336;2023-04-29T04:25:45;11.13;73.18
75010;DHT22;63564;46.840;18.336;2023-04-29T04:28:45;10.91;73.77
75010;DHT22;63564;46.840;18.336;2023-04-29T04:31:46;11.00;73.02
75010;DHT22;63564;46.840;18.336;2023-04-29T04:34:46;10.93;73.15
75010;DHT22;63564;46.840;18.336;2023-04-29T04:37:47;11.00;72.96
75010;DHT22;63564;46.840;18.336;2023-04-29T04:40:47;11.09;72.26
75010;DHT22;63564;46.840;18.336;2023-04-29T04:43:48;11.06;73.39
75010;DHT22;63564;46.840;18.336;2023-04-29T04:46:49;11.13;73.10
75010;DHT22;63564;46.840;18.336;2023-04-29T04:49:50;11.28;72.69
75010;DHT22;63564;46.840;18.336;2023-04-29T04:52:53;11.50;71.34
75010;DHT22;63564;46.840;18.336;2023-04-29T04:55:54;11.47;72.22
75010;DHT22;63564;46.840;18.336;2023-04-29T04:58:54;11.23;74.81
75010;DHT22;63564;46.840;18.336;2023-04-29T05:01:55;11.12;76.73
75010;DHT22;63564;46.840;18.336;2023-04-29T05:04:55;10.99;77.11
75010;DHT22;63564;46.840;18.336;2023-04-29T05:07:55;10.99;78.79
75010;DHT22;63564;46.840;18.336;2023-04-29T05:10:56;11.09;76.99
75010;DHT22;63564;46.840;18.336;2023-04-29T05:13:57;11.24;76.32
75010;DHT22;63564;46.840;18.336;2023-04-29T05:16:58;11.28;76.82
75010;DHT22;63564;46.840;18.336;2023-04-29T05:19:59;11.51;76.40
75010;DHT22;63564;46.840;18.336;2023-04-29T05:22:59;11.60;77.96
75010;DHT22;63564;46.840;18.336;2023-04-29T05:26:00;11.50;77.12
75010;DHT22;63564;46.840;18.336;2023-04-29T05:29:00;11.64;75.67
75010;DHT22;63564;46.840;18.336;2023-04-29T05:32:01;11.77;74.99
75010;DHT22;63564;46.840;18.336;2023-04-29T05:35:01;11.79;74.57
75010;DHT22;63564;46.840;18.336;2023-04-29T05:38:02;11.71;74.13
75010;DHT22;63564;46.840;18.336;2023-04-29T05:41:03;11.84;74.40
75010;DHT22;63564;46.840;18.336;2023-04-29T05:44:03;11.84;75.15
75010;DHT22;63564;46.840;18.336;2023-04-29T05:47:04;11.99;73.84
75010;DHT22;63564;46.840;18.336;2023-04-29T05:50:05;12.02;71.81
75010;DHT22;63564;46.840;18.336;2023-04-29T05:53:05;11.95;73.08
75010;DHT22;63564;46.840;18.336;2023-04-29T05:56:06;12.03;72.69
75010;DHT22;63564;46.840;18.336;2023-04-29T05:59:07;12.08;73.44
75010;DHT22;63564;46.840;18.336;2023-04-29T06:02:07;12.19;72.43
75010;DHT22;63564;46.840;18.336;2023-04-29T06:05:10;12.01;74.87
75010;DHT22;63564;46.840;18.336;2023-04-29T06:08:10;12.22;74.17
75010;DHT22;63564;46.840;18.336;2023-04-29T06:11:10;12.33;73.47
75010;DHT22;63564;46.840;18.336;2023-04-29T06:14:11;12.16;74.47
75010;DHT22;63564;46.840;18.336;2023-04-29T06:17:11;12.25;74.89
75010;DHT22;63564;46.840;18.336;2023-04-29T06:20:12;12.23;75.09
75010;DHT22;63564;46.840;18.336;2023-04-29T06:23:12;12.34;75.02
75010;DHT22;63564;46.840;18.336;2023-04-29T06:26:12;12.46;74.31
75010;DHT22;63564;46.840;18.336;2023-04-29T06:29:13;12.76;72.67
75010;DHT22;63564;46.840;18.336;2023-04-29T06:32:14;12.80;75.31
75010;DHT22;63564;46.840;18.336;2023-04-29T06:35:14;12.97;72.86
75010;DHT22;63564;46.840;18.336;2023-04-29T06:38:15;13.29;70.94
75010;DHT22;63564;46.840;18.336;2023-04-29T06:41:15;13.43;72.13
75010;DHT22;63564;46.840;18.336;2023-04-29T06:44:16;13.63;69.14
75010;DHT22;63564;46.840;18.336;2023-04-29T06:47:17;13.64;70.51
75010;DHT22;63564;46.840;18.336;2023-04-29T06:50:17;13.83;68.04
75010;DHT22;63564;46.840;18.336;2023-04-29T06:53:18;14.01;68.11
75010;DHT22;63564;46.840;18.336;2023-04-29T06:56:19;13.97;67.53
75010;DHT22;63564;46.840;18.336;2023-04-29T06:59:19;13.91;69.56
75010;DHT22;63564;46.840;18.336;2023-04-29T07:02:19;14.33;66.41
75010;DHT22;63564;46.840;18.336;2023-04-29T07:05:20;14.49;66.38
75010;DHT22;63564;46.840;18.336;2023-04-29T07:08:20;14.66;65.39
75010;DHT22;63564;46.840;18.336;2023-04-29T07:11:21;14.87;64.36
75010;DHT22;63564;46.840;18.336;2023-04-29T07:14:23;14.95;64.02
75010;DHT22;63564;46.840;18.336;2023-04-29T07:17:24;15.05;63.76
75010;DHT22;63564;46.840;18.336;2023-04-29T07:20:25;15.11;62.94
75010;DHT22;63564;46.840;18.336;2023-04-29T07:23:26;14.87;63.41
75010;DHT22;63564;46.840;18.336;2023-04-29T07:26:26;15.11;64.10
75010;DHT22;63564;46.840;18.336;2023-04-29T07:29:27;15.32;60.93
75010;DHT22;63564;46.840;18.336;2023-04-29T07:32:27;15.24;60.85
75010;DHT22;63564;46.840;18.336;2023-04-29T07:35:28;15.49;60.80
75010;DHT22;63564;46.840;18.336;2023-04-29T07:38:28;15.70;59.00
75010;DHT22;63564;46.840;18.336;2023-04-29T07:41:29;15.69;59.39
75010;DHT22;63564;46.840;18.336;2023-04-29T07:44:30;15.91;58.93
75010;DHT22;63564;46.840;18.336;2023-04-29T07:47:30;15.60;59.47
75010;DHT22;63564;46.840;18.336;2023-04-29T07:50:34;15.14;61.92
75010;DHT22;63564;46.840;18.336;2023-04-29T07:53:38;15.25;60.22
75010;DHT22;63564;46.840;18.336;2023-04-29T07:56:38;15.27;60.85
75010;DHT22;63564;46.840;18.336;2023-04-29T07:59:38;15.56;59.80
75010;DHT22;63564;46.840;18.336;2023-04-29T08:02:39;15.83;60.42
75010;DHT22;63564;46.840;18.336;2023-04-29T08:05:39;16.18;59.02
75010;DHT22;63564;46.840;18.336;2023-04-29T08:08:40;16.34;55.38
75010;DHT22;63564;46.840;18.336;2023-04-29T08:11:40;16.65;56.52
75010;DHT22;63564;46.840;18.336;2023-04-29T08:14:41;16.94;54.79
75010;DHT22;63564;46.840;18.336;2023-04-29T08:17:42;16.82;54.61
75010;DHT22;63564;46.840;18.336;2023-04-29T08:20:42;16.87;53.97
75010;DHT22;63564;46.840;18.336;2023-04-29T08:23:42;16.93;54.45
75010;DHT22;63564;46.840;18.336;2023-04-29T08:26:43;16.10;55.52
75010;DHT22;63564;46.840;18.336;2023-04-29T08:29:43;16.10;56.09
75010;DHT22;63564;46.840;18.336;2023-04-29T08:32:44;16.77;54.81
75010;DHT22;63564;46.840;18.336;2023-04-29T08:35:44;16.89;55.51
75010;DHT22;63564;46.840;18.336;2023-04-29T08:38:44;17.07;53.75
75010;DHT22;63564;46.840;18.336;2023-04-29T08:41:45;17.04;56.08
75010;DHT22;63564;46.840;18.336;2023-04-29T08:44:51;16.68;57.83
75010;DHT22;63564;46.840;18.336;2023-04-29T08:47:53;16.66;56.32
75010;DHT22;63564;46.840;18.336;2023-04-29T08:50:54;17.21;56.74
75010;DHT22;63564;46.840;18.336;2023-04-29T08:53:55;16.86;57.06
75010;DHT22;63564;46.840;18.336;2023-04-29T08:56:56;16.51;57.81
75010;DHT22;63564;46.840;18.336;2023-04-29T08:59:59;16.52;59.19
75010;DHT22;63564;46.840;18.336;2023-04-29T09:03:06;17.13;56.23
75010;DHT22;63564;46.840;18.336;2023-04-29T09:06:11;16.71;57.19
75010;DHT22;63564;46.840;18.336;2023-04-29T09:09:12;17.11;57.40
75010;DHT22;63564;46.840;18.336;2023-04-29T09:12:14;16.86;58.38
75010;DHT22;63564;46.840;18.336;2023-04-29T09:15:14;16.22;59.14
75010;DHT22;63564;46.840;18.336;2023-04-29T09:21:40;16.73;60.28
75010;DHT22;63564;46.840;18.336;2023-04-29T09:24:40;16.79;58.73
75010;DHT22;63564;46.840;18.336;2023-04-29T09:27:42;16.89;59.10
75010;DHT22;63564;46.840;18.336;2023-04-29T09:30:46;16.66;61.05
75010;DHT22;63564;46.840;18.336;2023-04-29T09:36:51;17.04;60.65
75010;DHT22;63564;46.840;18.336;2023-04-29T09:39:56;17.06;60.83
75010;DHT22;63564;46.840;18.336;2023-04-29T09:42:59;17.19;59.38
75010;DHT22;63564;46.840;18.336;2023-04-29T09:46:00;17.75;59.29
75010;DHT22;63564;46.840;18.336;2023-04-29T09:49:20;17.03;61.07
75010;DHT22;63564;46.840;18.336;2023-04-29T09:52:22;17.68;59.22
75010;DHT22;63564;46.840;18.336;2023-04-29T09:55:23;17.62;60.08
75010;DHT22;63564;46.840;18.336;2023-04-29T09:58:28;17.59;59.77
75010;DHT22;63564;46.840;18.336;2023-04-29T10:01:30;17.65;60.13
75010;DHT22;63564;46.840;18.336;2023-04-29T10:04:31;18.61;57.40
75010;DHT22;63564;46.840;18.336;2023-04-29T10:07:34;18.34;56.57
75010;DHT22;63564;46.840;18.336;2023-04-29T10:10:34;17.45;60.03
75010;DHT22;63564;46.840;18.336;2023-04-29T10:13:35;17.51;59.90
75010;DHT22;63564;46.840;18.336;2023-04-29T10:16:44;17.10;61.89
75010;DHT22;63564;46.840;18.336;2023-04-29T10:20:02;17.13;62.96
75010;DHT22;63564;46.840;18.336;2023-04-29T10:23:05;17.45;61.74
75010;DHT22;63564;46.840;18.336;2023-04-29T10:26:06;17.21;60.81
75010;DHT22;63564;46.840;18.336;2023-04-29T10:29:08;16.90;63.43
75010;DHT22;63564;46.840;18.336;2023-04-29T10:32:10;17.16;63.55
75010;DHT22;63564;46.840;18.336;2023-04-29T10:35:14;17.71;60.70
75010;DHT22;63564;46.840;18.336;2023-04-29T10:38:25;17.67;61.99
75010;DHT22;63564;46.840;18.336;2023-04-29T10:41:32;17.26;64.32
75010;DHT22;63564;46.840;18.336;2023-04-29T10:48:13;17.06;65.58
75010;DHT22;63564;46.840;18.336;2023-04-29T10:51:31;17.65;64.35
75010;DHT22;63564;46.840;18.336;2023-04-29T10:54:32;17.74;62.69
75010;DHT22;63564;46.840;18.336;2023-04-29T10:57:32;18.34;60.80
75010;DHT22;63564;46.840;18.336;2023-04-29T11:00:33;18.44;62.75
75010;DHT22;63564;46.840;18.336;2023-04-29T11:06:51;18.16;62.57
75010;DHT22;63564;46.840;18.336;2023-04-29T11:09:52;18.47;62.63
75010;DHT22;63564;46.840;18.336;2023-04-29T11:16:25;19.30;60.73
75010;DHT22;63564;46.840;18.336;2023-04-29T11:19:42;19.10;60.91
75010;DHT22;63564;46.840;18.336;2023-04-29T11:22:50;18.84;62.21
75010;DHT22;63564;46.840;18.336;2023-04-29T11:25:51;18.92;61.60
75010;DHT22;63564;46.840;18.336;2023-04-29T11:28:52;19.06;60.97
75010;DHT22;63564;46.840;18.336;2023-04-29T11:32:02;18.81;62.50
75010;DHT22;63564;46.840;18.336;2023-04-29T11:35:10;18.87;64.17
75010;DHT22;63564;46.840;18.336;2023-04-29T11:38:11;19.12;63.33
75010;DHT22;63564;46.840;18.336;2023-04-29T11:41:12;19.23;62.73
75010;DHT22;63564;46.840;18.336;2023-04-29T11:44:13;19.05;61.48
75010;DHT22;63564;46.840;18.336;2023-04-29T11:47:14;19.00;61.53
75010;DHT22;63564;46.840;18.336;2023-04-29T11:50:16;19.38;60.19
75010;DHT22;63564;46.840;18.336;2023-04-29T11:53:19;19.58;61.75
75010;DHT22;63564;46.840;18.336;2023-04-29T11:56:21;20.49;57.54
75010;DHT22;63564;46.840;18.336;2023-04-29T11:59:25;20.74;57.44
75010;DHT22;63564;46.840;18.336;2023-04-29T12:02:32;20.73;58.04
75010;DHT22;63564;46.840;18.336;2023-04-29T12:05:33;20.18;58.57
75010;DHT22;63564;46.840;18.336;2023-04-29T12:08:33;19.84;58.75
75010;DHT22;63564;46.840;18.336;2023-04-29T12:11:35;19.73;59.12
75010;DHT22;63564;46.840;18.336;2023-04-29T12:14:37;20.06;59.75
75010;DHT22;63564;46.840;18.336;2023-04-29T12:17:41;19.86;58.13
75010;DHT22;63564;46.840;18.336;2023-04-29T12:20:41;21.08;55.58
75010;DHT22;63564;46.840;18.336;2023-04-29T12:23:42;20.46;56.34
75010;DHT22;63564;46.840;18.336;2023-04-29T12:26:44;20.60;57.08
75010;DHT22;63564;46.840;18.336;2023-04-29T12:29:45;20.18;57.07
75010;DHT22;63564;46.840;18.336;2023-04-29T12:32:45;20.56;57.12
75010;DHT22;63564;46.840;18.336;2023-04-29T12:35:48;20.11;57.80
75010;DHT22;63564;46.840;18.336;2023-04-29T12:38:50;20.54;56.62
75010;DHT22;63564;46.840;18.336;2023-04-29T12:41:57;20.18;56.96
75010;DHT22;63564;46.840;18.336;2023-04-29T12:44:58;20.74;55.90
75010;DHT22;63564;46.840;18.336;2023-04-29T12:47:59;21.19;53.88
75010;DHT22;63564;46.840;18.336;2023-04-29T12:51:01;21.38;53.25
75010;DHT22;63564;46.840;18.336;2023-04-29T12:54:02;21.98;52.00
75010;DHT22;63564;46.840;18.336;2023-04-29T12:57:03;21.35;54.28
75010;DHT22;63564;46.840;18.336;2023-04-29T13:00:04;21.39;53.55
75010;DHT22;63564;46.840;18.336;2023-04-29T13:03:05;21.72;54.96
75010;DHT22;63564;46.840;18.336;2023-04-29T13:06:06;22.85;50.84
75010;DHT22;63564;46.840;18.336;2023-04-29T13:09:07;24.12;46.24
75010;DHT22;63564;46.840;18.336;2023-04-29T13:12:11;23.23;47.71
75010;DHT22;63564;46.840;18.336;2023-04-29T13:15:11;21.87;51.03
75010;DHT22;63564;46.840;18.336;2023-04-29T13:18:12;22.24;51.81
75010;DHT22;63564;46.840;18.336;2023-04-29T13:21:13;21.80;52.13
75010;DHT22;63564;46.840;18.336;2023-04-29T13:24:13;22.99;48.51
75010;DHT22;63564;46.840;18.336;2023-04-29T13:27:16;21.93;50.62
75010;DHT22;63564;46.840;18.336;2023-04-29T13:30:17;21.60;50.92
75010;DHT22;63564;46.840;18.336;2023-04-29T13:33:17;21.01;53.20
75010;DHT22;63564;46.840;18.336;2023-04-29T13:36:18;20.37;53.64
75010;DHT22;63564;46.840;18.336;2023-04-29T13:39:18;21.14;53.15
75010;DHT22;63564;46.840;18.336;2023-04-29T13:42:21;22.65;49.61
75010;DHT22;63564;46.840;18.336;2023-04-29T13:45:21;22.22;50.47
75010;DHT22;63564;46.840;18.336;2023-04-29T13:48:22;22.59;49.04
75010;DHT22;63564;46.840;18.336;2023-04-29T13:51:22;22.49;50.10
75010;DHT22;63564;46.840;18.336;2023-04-29T13:54:23;22.10;49.42
75010;DHT22;63564;46.840;18.336;2023-04-29T13:57:23;21.43;52.83
75010;DHT22;63564;46.840;18.336;2023-04-29T14:00:26;20.08;55.79
75010;DHT22;63564;46.840;18.336;2023-04-29T14:03:27;20.74;54.37
75010;DHT22;63564;46.840;18.336;2023-04-29T14:06:27;21.12;53.07
75010;DHT22;63564;46.840;18.336;2023-04-29T14:09:28;22.22;52.24
75010;DHT22;63564;46.840;18.336;2023-04-29T14:12:28;20.43;54.98
75010;DHT22;63564;46.840;18.336;2023-04-29T14:15:29;20.08;56.03
75010;DHT22;63564;46.840;18.336;2023-04-29T14:18:29;20.83;54.66
75010;DHT22;63564;46.840;18.336;2023-04-29T14:21:30;20.53;55.25
75010;DHT22;63564;46.840;18.336;2023-04-29T14:24:32;20.63;54.69
75010;DHT22;63564;46.840;18.336;2023-04-29T14:27:32;20.81;55.79
75010;DHT22;63564;46.840;18.336;2023-04-29T14:30:34;20.09;56.76
75010;DHT22;63564;46.840;18.336;2023-04-29T14:33:35;20.50;54.85
75010;DHT22;63564;46.840;18.336;2023-04-29T14:36:35;20.16;57.36
75010;DHT22;63564;46.840;18.336;2023-04-29T14:39:35;20.30;56.17
75010;DHT22;63564;46.840;18.336;2023-04-29T14:42:36;19.81;56.52
75010;DHT22;63564;46.840;18.336;2023-04-29T14:45:36;19.67;57.65
75010;DHT22;63564;46.840;18.336;2023-04-29T14:48:37;20.12;56.71
75010;DHT22;63564;46.840;18.336;2023-04-29T14:51:37;20.16;57.06
75010;DHT22;63564;46.840;18.336;2023-04-29T14:54:37;20.33;57.31
75010;DHT22;63564;46.840;18.336;2023-04-29T14:57:38;21.07;52.90
75010;DHT22;63564;46.840;18.336;2023-04-29T15:00:38;20.91;53.92
75010;DHT22;63564;46.840;18.336;2023-04-29T15:03:38;20.36;55.47
75010;DHT22;63564;46.840;18.336;2023-04-29T15:06:40;19.99;56.55
75010;DHT22;63564;46.840;18.336;2023-04-29T15:09:41;19.84;56.76
75010;DHT22;63564;46.840;18.336;2023-04-29T15:12:41;19.73;57.53
75010;DHT22;63564;46.840;18.336;2023-04-29T15:15:41;19.88;57.69
75010;DHT22;63564;46.840;18.336;2023-04-29T15:18:42;20.23;56.03
75010;DHT22;63564;46.840;18.336;2023-04-29T15:21:42;19.91;57.31
75010;DHT22;63564;46.840;18.336;2023-04-29T15:24:43;19.60;58.16
75010;DHT22;63564;46.840;18.336;2023-04-29T15:27:43;19.68;58.32
75010;DHT22;63564;46.840;18.336;2023-04-29T15:30:43;19.56;57.77
75010;DHT22;63564;46.840;18.336;2023-04-29T15:33:44;19.63;58.08
75010;DHT22;63564;46.840;18.336;2023-04-29T15:36:44;19.89;57.85
75010;DHT22;63564;46.840;18.336;2023-04-29T15:39:45;19.70;56.90
75010;DHT22;63564;46.840;18.336;2023-04-29T15:42:45;19.22;58.28
75010;DHT22;63564;46.840;18.336;2023-04-29T15:45:45;19.15;59.67
75010;DHT22;63564;46.840;18.336;2023-04-29T15:48:46;19.34;57.80
75010;DHT22;63564;46.840;18.336;2023-04-29T15:51:46;19.40;58.29
75010;DHT22;63564;46.840;18.336;2023-04-29T15:54:47;19.29;58.49
75010;DHT22;63564;46.840;18.336;2023-04-29T15:57:47;19.36;58.70
75010;DHT22;63564;46.840;18.336;2023-04-29T16:00:50;19.23;59.30
75010;DHT22;63564;46.840;18.336;2023-04-29T16:03:50;19.26;59.20
75010;DHT22;63564;46.840;18.336;2023-04-29T16:06:51;19.38;58.21
75010;DHT22;63564;46.840;18.336;2023-04-29T16:09:53;19.12;58.58
75010;DHT22;63564;46.840;18.336;2023-04-29T16:12:54;18.98;59.62
75010;DHT22;63564;46.840;18.336;2023-04-29T16:15:54;19.08;59.78
75010;DHT22;63564;46.840;18.336;2023-04-29T16:18:55;18.94;59.40
75010;DHT22;63564;46.840;18.336;2023-04-29T16:21:56;18.75;60.22
75010;DHT22;63564;46.840;18.336;2023-04-29T16:24:56;18.88;60.14
75010;DHT22;63564;46.840;18.336;2023-04-29T16:27:57;18.85;60.59
75010;DHT22;63564;46.840;18.336;2023-04-29T16:30:57;18.87;61.03
75010;DHT22;63564;46.840;18.336;2023-04-29T16:33:57;18.78;60.40
75010;DHT22;63564;46.840;18.336;2023-04-29T16:36:58;18.82;60.29
75010;DHT22;63564;46.840;18.336;2023-04-29T16:39:58;18.79;60.46
75010;DHT22;63564;46.840;18.336;2023-04-29T16:42:59;18.88;60.03
75010;DHT22;63564;46.840;18.336;2023-04-29T16:45:59;18.87;60.13
75010;DHT22;63564;46.840;18.336;2023-04-29T16:49:00;18.73;60.62
75010;DHT22;63564;46.840;18.336;2023-04-29T16:52:00;18.61;61.11
75010;DHT22;63564;46.840;18.336;2023-04-29T16:55:01;18.55;61.46
75010;DHT22;63564;46.840;18.336;2023-04-29T16:58:02;18.48;62.06
75010;DHT22;63564;46.840;18.336;2023-04-29T17:01:03;18.38;63.28
75010;DHT22;63564;46.840;18.336;2023-04-29T17:04:04;18.30;62.63
75010;DHT22;63564;46.840;18.336;2023-04-29T17:07:05;18.13;63.38
75010;DHT22;63564;46.840;18.336;2023-04-29T17:10:06;18.07;62.68
75010;DHT22;63564;46.840;18.336;2023-04-29T17:13:07;18.00;63.16
75010;DHT22;63564;46.840;18.336;2023-04-29T17:16:07;17.90;63.03
75010;DHT22;63564;46.840;18.336;2023-04-29T17:19:08;17.68;63.91
75010;DHT22;63564;46.840;18.336;2023-04-29T17:22:08;17.61;64.40
75010;DHT22;63564;46.840;18.336;2023-04-29T17:25:09;17.49;64.82
75010;DHT22;63564;46.840;18.336;2023-04-29T17:28:09;17.40;65.27
75010;DHT22;63564;46.840;18.336;2023-04-29T17:31:10;17.34;65.39
75010;DHT22;63564;46.840;18.336;2023-04-29T17:34:11;17.20;65.76
75010;DHT22;63564;46.840;18.336;2023-04-29T17:37:32;17.03;66.12
75010;DHT22;63564;46.840;18.336;2023-04-29T17:40:33;16.84;65.94
75010;DHT22;63564;46.840;18.336;2023-04-29T17:43:34;16.76;66.41
75010;DHT22;63564;46.840;18.336;2023-04-29T17:46:35;16.62;66.71
75010;DHT22;63564;46.840;18.336;2023-04-29T17:49:35;16.47;67.61
75010;DHT22;63564;46.840;18.336;2023-04-29T17:52:36;16.52;67.43
75010;DHT22;63564;46.840;18.336;2023-04-29T17:55:38;16.56;67.46
75010;DHT22;63564;46.840;18.336;2023-04-29T17:58:38;16.51;67.49
75010;DHT22;63564;46.840;18.336;2023-04-29T18:01:39;16.31;68.10
75010;DHT22;63564;46.840;18.336;2023-04-29T18:04:39;16.16;68.70
75010;DHT22;63564;46.840;18.336;2023-04-29T18:07:40;15.80;70.42
75010;DHT22;63564;46.840;18.336;2023-04-29T18:10:40;15.66;70.49
75010;DHT22;63564;46.840;18.336;2023-04-29T18:13:41;15.53;71.28
75010;DHT22;63564;46.840;18.336;2023-04-29T18:16:41;15.48;70.99
75010;DHT22;63564;46.840;18.336;2023-04-29T18:19:45;15.49;70.60
75010;DHT22;63564;46.840;18.336;2023-04-29T18:22:45;15.58;70.68
75010;DHT22;63564;46.840;18.336;2023-04-29T18:25:46;15.25;74.15
75010;DHT22;63564;46.840;18.336;2023-04-29T18:28:47;15.27;72.90
75010;DHT22;63564;46.840;18.336;2023-04-29T18:31:47;15.14;73.51
75010;DHT22;63564;46.840;18.336;2023-04-29T18:34:48;14.98;73.55
75010;DHT22;63564;46.840;18.336;2023-04-29T18:37:48;14.98;73.78
75010;DHT22;63564;46.840;18.336;2023-04-29T18:40:48;15.00;72.24
75010;DHT22;63564;46.840;18.336;2023-04-29T18:43:49;15.11;71.96
75010;DHT22;63564;46.840;18.336;2023-04-29T18:46:50;15.01;71.84
75010;DHT22;63564;46.840;18.336;2023-04-29T18:49:50;15.00;72.35
75010;DHT22;63564;46.840;18.336;2023-04-29T18:52:51;14.98;72.62
75010;DHT22;63564;46.840;18.336;2023-04-29T18:55:51;14.91;73.15
75010;DHT22;63564;46.840;18.336;2023-04-29T18:58:51;14.81;74.11
75010;DHT22;63564;46.840;18.336;2023-04-29T19:01:52;14.67;74.56
75010;DHT22;63564;46.840;18.336;2023-04-29T19:04:52;14.56;74.74
75010;DHT22;63564;46.840;18.336;2023-04-29T19:07:53;14.62;75.07
75010;DHT22;63564;46.840;18.336;2023-04-29T19:10:53;14.56;75.26
75010;DHT22;63564;46.840;18.336;2023-04-29T19:13:54;14.52;75.91